sensor_id;sensor_type;location;lat;lon;timestamp;temperature;humidity
15298;DHT22;7750;48.796;9.026;2022-08-26T00:02:38;25.00;52.60
15298;DHT22;7750;48.796;9.026;2022-08-26T00:07:39;25.00;52.80
15298;DHT22;7750;48.796;9.026;2022-08-26T00:12:40;24.90;53.10
15298;DHT22;7750;48.796;9.026;2022-08-26T00:17:41;24.80;53.00
15298;DHT22;7750;48.796;9.026;2022-08-26T00:22:42;24.70;53.30
15298;DHT22;7750;48.796;9.026;2022-08-26T00:27:43;24.70;53.50
15298;DHT22;7750;48.796;9.026;2022-08-26T00:32:45;24.60;53.80
15298;DHT22;7750;48.796;9.026;2022-08-26T00:37:46;24.60;53.90
15298;DHT22;7750;48.796;9.026;2022-08-26T00:42:47;24.50;53.90
15298;DHT22;7750;48.796;9.026;2022-08-26T00:47:56;24.40;54.10
15298;DHT22;7750;48.796;9.026;2022-08-26T00:52:59;24.40;54.50
15298;DHT22;7750;48.796;9.026;2022-08-26T00:58:01;24.30;54.50
15298;DHT22;7750;48.796;9.026;2022-08-26T01:03:02;24.20;54.50
15298;DHT22;7750;48.796;9.026;2022-08-26T01:08:03;24.20;54.70
15298;DHT22;7750;48.796;9.026;2022-08-26T01:13:07;24.10;54.80
15298;DHT22;7750;48.796;9.026;2022-08-26T01:18:12;24.10;55.10
15298;DHT22;7750;48.796;9.026;2022-08-26T01:23:14;24.10;55.10
15298;DHT22;7750;48.796;9.026;2022-08-26T01:28:27;24.00;55.20
15298;DHT22;7750;48.796;9.026;2022-08-26T01:33:39;23.90;55.50
15298;DHT22;7750;48.796;9.026;2022-08-26T01:38:46;23.90;55.80
15298;DHT22;7750;48.796;9.026;2022-08-26T01:43:49;23.80;55.70
15298;DHT22;7750;48.796;9.026;2022-08-26T01:48:52;23.70;55.90
15298;DHT22;7750;48.796;9.026;2022-08-26T01:53:54;23.60;55.80
15298;DHT22;7750;48.796;9.026;2022-08-26T01:58:57;23.60;56.00
15298;DHT22;7750;48.796;9.026;2022-08-26T02:04:15;23.50;56.20
15298;DHT22;7750;48.796;9.026;2022-08-26T02:09:18;23.50;56.60
15298;DHT22;7750;48.796;9.026;2022-08-26T02:14:27;23.40;56.40
15298;DHT22;7750;48.796;9.026;2022-08-26T02:19:33;23.30;56.80
15298;DHT22;7750;48.796;9.026;2022-08-26T02:24:54;23.30;56.90
15298;DHT22;7750;48.796;9.026;2022-08-26T02:35:10;23.10;57.10
15298;DHT22;7750;48.796;9.026;2022-08-26T02:40:13;23.10;57.10
15298;DHT22;7750;48.796;9.026;2022-08-26T02:45:13;23.00;57.20
15298;DHT22;7750;48.796;9.026;2022-08-26T02:50:14;23.00;57.20
15298;DHT22;7750;48.796;9.026;2022-08-26T02:55:15;22.90;57.20
15298;DHT22;7750;48.796;9.026;2022-08-26T03:00:16;22.90;57.40
15298;DHT22;7750;48.796;9.026;2022-08-26T03:05:17;22.90;57.60
15298;DHT22;7750;48.796;9.026;2022-08-26T03:10:19;22.80;57.70
15298;DHT22;7750;48.796;9.026;2022-08-26T03:15:20;22.70;57.90
15298;DHT22;7750;48.796;9.026;2022-08-26T03:20:21;22.70;57.90
15298;DHT22;7750;48.796;9.026;2022-08-26T03:25:22;22.70;58.10
15298;DHT22;7750;48.796;9.026;2022-08-26T03:30:24;22.60;58.10
15298;DHT22;7750;48.796;9.026;2022-08-26T03:35:42;22.60;58.30
15298;DHT22;7750;48.796;9.026;2022-08-26T03:40:43;22.50;58.50
15298;DHT22;7750;48.796;9.026;2022-08-26T03:45:44;22.50;58.50
15298;DHT22;7750;48.796;9.026;2022-08-26T03:50:45;22.40;58.60
15298;DHT22;7750;48.796;9.026;2022-08-26T03:55:46;22.40;58.70
15298;DHT22;7750;48.796;9.026;2022-08-26T04:00:46;22.30;58.70
15298;DHT22;7750;48.796;9.026;2022-08-26T04:05:50;22.30;58.90
15298;DHT22;7750;48.796;9.026;2022-08-26T04:10:51;22.20;59.00
15298;DHT22;7750;48.796;9.026;2022-08-26T04:15:52;22.20;59.00
15298;DHT22;7750;48.796;9.026;2022-08-26T04:20:53;22.10;59.20
15298;DHT22;7750;48.796;9.026;2022-08-26T04:25:54;22.10;59.30
15298;DHT22;7750;48.796;9.026;2022-08-26T04:30:55;22.10;59.50
15298;DHT22;7750;48.796;9.026;2022-08-26T04:36:01;22.00;59.50
15298;DHT22;7750;48.796;9.026;2022-08-26T04:41:02;22.00;59.80
15298;DHT22;7750;48.796;9.026;2022-08-26T04:46:04;21.90;59.60
15298;DHT22;7750;48.796;9.026;2022-08-26T04:51:06;21.90;60.00
15298;DHT22;7750;48.796;9.026;2022-08-26T04:56:07;21.80;60.00
15298;DHT22;7750;48.796;9.026;2022-08-26T05:01:08;21.80;60.00
15298;DHT22;7750;48.796;9.026;2022-08-26T05:06:08;21.80;60.20
15298;DHT22;7750;48.796;9.026;2022-08-26T05:11:11;21.80;60.50
15298;DHT22;7750;48.796;9.026;2022-08-26T05:16:14;21.80;60.60
15298;DHT22;7750;48.796;9.026;2022-08-26T05:21:21;21.80;60.90
15298;DHT22;7750;48.796;9.026;2022-08-26T05:26:24;21.80;61.10
15298;DHT22;7750;48.796;9.026;2022-08-26T05:31:28;21.80;61.10
15298;DHT22;7750;48.796;9.026;2022-08-26T05:36:30;21.80;61.20
15298;DHT22;7750;48.796;9.026;2022-08-26T05:41:34;21.90;61.30
15298;DHT22;7750;48.796;9.026;2022-08-26T05:46:36;21.90;61.30
15298;DHT22;7750;48.796;9.026;2022-08-26T05:51:37;21.90;61.50
15298;DHT22;7750;48.796;9.026;2022-08-26T05:56:38;21.90;61.30
15298;DHT22;7750;48.796;9.026;2022-08-26T06:01:40;21.90;61.60
15298;DHT22;7750;48.796;9.026;2022-08-26T06:06:41;21.90;61.80
15298;DHT22;7750;48.796;9.026;2022-08-26T06:11:42;21.90;61.80
15298;DHT22;7750;48.796;9.026;2022-08-26T06:16:43;21.90;61.90
15298;DHT22;7750;48.796;9.026;2022-08-26T06:21:46;22.00;62.20
15298;DHT22;7750;48.796;9.026;2022-08-26T06:26:51;22.10;62.50
15298;DHT22;7750;48.796;9.026;2022-08-26T06:31:53;22.20;62.50
15298;DHT22;7750;48.796;9.026;2022-08-26T06:36:55;22.30;62.60
15298;DHT22;7750;48.796;9.026;2022-08-26T06:41:59;22.40;62.70
15298;DHT22;7750;48.796;9.026;2022-08-26T06:46:59;22.70;63.20
15298;DHT22;7750;48.796;9.026;2022-08-26T06:52:00;23.00;63.20
15298;DHT22;7750;48.796;9.026;2022-08-26T06:57:01;23.40;62.90
15298;DHT22;7750;48.796;9.026;2022-08-26T07:02:01;23.80;63.00
15298;DHT22;7750;48.796;9.026;2022-08-26T07:07:02;24.30;62.80
15298;DHT22;7750;48.796;9.026;2022-08-26T07:12:03;24.90;61.90
15298;DHT22;7750;48.796;9.026;2022-08-26T07:17:05;25.40;60.60
15298;DHT22;7750;48.796;9.026;2022-08-26T07:22:06;26.00;60.20
15298;DHT22;7750;48.796;9.026;2022-08-26T07:27:10;26.50;59.70
15298;DHT22;7750;48.796;9.026;2022-08-26T07:32:18;27.20;59.20
15298;DHT22;7750;48.796;9.026;2022-08-26T07:37:19;27.70;56.70
15298;DHT22;7750;48.796;9.026;2022-08-26T07:42:20;28.10;57.00
15298;DHT22;7750;48.796;9.026;2022-08-26T07:47:21;28.50;55.50
15298;DHT22;7750;48.796;9.026;2022-08-26T07:52:23;28.80;56.00
15298;DHT22;7750;48.796;9.026;2022-08-26T07:57:24;29.30;55.20
15298;DHT22;7750;48.796;9.026;2022-08-26T08:02:26;29.80;54.80
15298;DHT22;7750;48.796;9.026;2022-08-26T08:07:28;30.40;54.50
15298;DHT22;7750;48.796;9.026;2022-08-26T08:12:29;31.10;53.90
15298;DHT22;7750;48.796;9.026;2022-08-26T08:17:29;31.70;52.50
15298;DHT22;7750;48.796;9.026;2022-08-26T08:22:30;32.20;51.00
15298;DHT22;7750;48.796;9.026;2022-08-26T08:27:36;32.60;51.00
15298;DHT22;7750;48.796;9.026;2022-08-26T08:32:37;32.90;50.00
15298;DHT22;7750;48.796;9.026;2022-08-26T08:37:38;33.20;49.80
15298;DHT22;7750;48.796;9.026;2022-08-26T08:43:02;33.50;49.40
15298;DHT22;7750;48.796;9.026;2022-08-26T08:48:09;33.70;48.60
15298;DHT22;7750;48.796;9.026;2022-08-26T08:58:18;33.70;47.30
15298;DHT22;7750;48.796;9.026;2022-08-26T09:08:49;33.00;47.50
15298;DHT22;7750;48.796;9.026;2022-08-26T09:13:54;32.60;47.90
15298;DHT22;7750;48.796;9.026;2022-08-26T09:24:08;32.20;48.50
15298;DHT22;7750;48.796;9.026;2022-08-26T09:29:22;32.00;48.50
15298;DHT22;7750;48.796;9.026;2022-08-26T09:34:26;31.90;48.70
15298;DHT22;7750;48.796;9.026;2022-08-26T09:39:30;31.80;49.00
15298;DHT22;7750;48.796;9.026;2022-08-26T09:44:33;31.70;49.10
15298;DHT22;7750;48.796;9.026;2022-08-26T09:49:37;31.70;49.30
15298;DHT22;7750;48.796;9.026;2022-08-26T09:54:39;31.80;49.40
15298;DHT22;7750;48.796;9.026;2022-08-26T09:59:40;31.90;49.30
15298;DHT22;7750;48.796;9.026;2022-08-26T10:04:51;32.00;49.20
15298;DHT22;7750;48.796;9.026;2022-08-26T10:09:53;32.20;48.60
15298;DHT22;7750;48.796;9.026;2022-08-26T10:14:58;32.30;48.90
15298;DHT22;7750;48.796;9.026;2022-08-26T10:20:20;32.40;48.60
15298;DHT22;7750;48.796;9.026;2022-08-26T10:36:25;32.80;48.40
15298;DHT22;7750;48.796;9.026;2022-08-26T10:41:47;32.90;48.00
15298;DHT22;7750;48.796;9.026;2022-08-26T10:47:08;33.10;47.50
15298;DHT22;7750;48.796;9.026;2022-08-26T10:52:22;33.40;46.90
15298;DHT22;7750;48.796;9.026;2022-08-26T10:58:05;33.70;46.20
15298;DHT22;7750;48.796;9.026;2022-08-26T11:08:29;34.40;45.50
15298;DHT22;7750;48.796;9.026;2022-08-26T11:18:56;34.80;43.40
15298;DHT22;7750;48.796;9.026;2022-08-26T11:23:56;34.70;43.50
15298;DHT22;7750;48.796;9.026;2022-08-26T11:28:57;34.80;43.90
15298;DHT22;7750;48.796;9.026;2022-08-26T11:34:03;35.20;43.60
15298;DHT22;7750;48.796;9.026;2022-08-26T11:44:39;35.80;42.90
15298;DHT22;7750;48.796;9.026;2022-08-26T11:49:40;36.00;41.70
15298;DHT22;7750;48.796;9.026;2022-08-26T12:00:04;36.30;41.60
15298;DHT22;7750;48.796;9.026;2022-08-26T12:05:12;36.00;41.20
15298;DHT22;7750;48.796;9.026;2022-08-26T12:10:25;35.90;41.20
15298;DHT22;7750;48.796;9.026;2022-08-26T12:15:30;35.70;41.00
15298;DHT22;7750;48.796;9.026;2022-08-26T12:25:49;35.40;41.20
15298;DHT22;7750;48.796;9.026;2022-08-26T12:31:02;35.40;41.40
15298;DHT22;7750;48.796;9.026;2022-08-26T12:36:04;35.30;41.00
15298;DHT22;7750;48.796;9.026;2022-08-26T12:41:05;35.40;40.00
15298;DHT22;7750;48.796;9.026;2022-08-26T12:46:07;35.60;39.80
15298;DHT22;7750;48.796;9.026;2022-08-26T12:51:18;35.70;39.90
15298;DHT22;7750;48.796;9.026;2022-08-26T12:56:32;35.80;39.80
15298;DHT22;7750;48.796;9.026;2022-08-26T13:01:38;35.90;39.80
15298;DHT22;7750;48.796;9.026;2022-08-26T13:06:38;35.90;40.00
15298;DHT22;7750;48.796;9.026;2022-08-26T13:16:40;36.00;40.50
15298;DHT22;7750;48.796;9.026;2022-08-26T13:21:50;35.90;40.60
15298;DHT22;7750;48.796;9.026;2022-08-26T13:26:52;35.60;40.50
15298;DHT22;7750;48.796;9.026;2022-08-26T13:31:53;35.30;41.20
15298;DHT22;7750;48.796;9.026;2022-08-26T13:36:54;34.90;41.90
15298;DHT22;7750;48.796;9.026;2022-08-26T13:41:55;34.70;42.50
15298;DHT22;7750;48.796;9.026;2022-08-26T13:46:56;34.60;43.10
15298;DHT22;7750;48.796;9.026;2022-08-26T13:51:56;34.60;43.10
15298;DHT22;7750;48.796;9.026;2022-08-26T13:56:57;34.60;43.10
15298;DHT22;7750;48.796;9.026;2022-08-26T14:02:00;34.60;43.10
15298;DHT22;7750;48.796;9.026;2022-08-26T14:07:03;34.60;43.00
15298;DHT22;7750;48.796;9.026;2022-08-26T14:12:03;34.60;42.90
15298;DHT22;7750;48.796;9.026;2022-08-26T14:17:07;34.60;43.60
15298;DHT22;7750;48.796;9.026;2022-08-26T14:22:13;34.70;43.00
15298;DHT22;7750;48.796;9.026;2022-08-26T14:27:15;34.80;42.50
15298;DHT22;7750;48.796;9.026;2022-08-26T14:32:23;34.90;42.80
15298;DHT22;7750;48.796;9.026;2022-08-26T14:37:25;35.10;42.70
15298;DHT22;7750;48.796;9.026;2022-08-26T14:42:27;35.30;42.10
15298;DHT22;7750;48.796;9.026;2022-08-26T14:47:30;35.40;42.00
15298;DHT22;7750;48.796;9.026;2022-08-26T14:52:31;35.40;41.30
15298;DHT22;7750;48.796;9.026;2022-08-26T14:57:51;35.30;41.30
15298;DHT22;7750;48.796;9.026;2022-08-26T15:02:52;35.10;41.10
15298;DHT22;7750;48.796;9.026;2022-08-26T15:07:52;34.90;41.40
15298;DHT22;7750;48.796;9.026;2022-08-26T15:12:53;34.70;41.30
15298;DHT22;7750;48.796;9.026;2022-08-26T15:17:54;34.50;41.30
15298;DHT22;7750;48.796;9.026;2022-08-26T15:22:55;34.70;41.10
15298;DHT22;7750;48.796;9.026;2022-08-26T15:27:56;34.30;41.80
15298;DHT22;7750;48.796;9.026;2022-08-26T15:32:56;33.90;42.00
15298;DHT22;7750;48.796;9.026;2022-08-26T15:37:57;33.20;46.50
15298;DHT22;7750;48.796;9.026;2022-08-26T15:42:58;32.10;47.40
15298;DHT22;7750;48.796;9.026;2022-08-26T15:47:58;31.00;49.90
15298;DHT22;7750;48.796;9.026;2022-08-26T15:53:03;30.20;50.80
15298;DHT22;7750;48.796;9.026;2022-08-26T15:58:04;29.60;52.10
15298;DHT22;7750;48.796;9.026;2022-08-26T16:03:09;29.10;52.30
15298;DHT22;7750;48.796;9.026;2022-08-26T16:08:11;28.90;53.80
15298;DHT22;7750;48.796;9.026;2022-08-26T16:13:19;28.70;53.50
15298;DHT22;7750;48.796;9.026;2022-08-26T16:18:19;28.50;53.30
15298;DHT22;7750;48.796;9.026;2022-08-26T16:23:21;28.30;53.70
15298;DHT22;7750;48.796;9.026;2022-08-26T16:28:31;28.10;53.40
15298;DHT22;7750;48.796;9.026;2022-08-26T16:33:55;28.00;54.50
15298;DHT22;7750;48.796;9.026;2022-08-26T16:39:03;27.80;55.20
15298;DHT22;7750;48.796;9.026;2022-08-26T16:44:13;27.60;55.00
15298;DHT22;7750;48.796;9.026;2022-08-26T16:49:17;27.40;55.20
15298;DHT22;7750;48.796;9.026;2022-08-26T16:54:18;27.20;55.10
15298;DHT22;7750;48.796;9.026;2022-08-26T16:59:19;27.00;55.50
15298;DHT22;7750;48.796;9.026;2022-08-26T17:04:19;26.80;55.40
15298;DHT22;7750;48.796;9.026;2022-08-26T17:09:21;26.70;55.30
15298;DHT22;7750;48.796;9.026;2022-08-26T17:14:22;26.50;55.80
15298;DHT22;7750;48.796;9.026;2022-08-26T17:19:23;26.40;55.90
15298;DHT22;7750;48.796;9.026;2022-08-26T17:24:24;26.30;56.10
15298;DHT22;7750;48.796;9.026;2022-08-26T17:29:25;26.20;56.50
15298;DHT22;7750;48.796;9.026;2022-08-26T17:34:26;26.10;57.00
15298;DHT22;7750;48.796;9.026;2022-08-26T17:39:26;25.90;57.50
15298;DHT22;7750;48.796;9.026;2022-08-26T17:44:27;25.90;57.40
15298;DHT22;7750;48.796;9.026;2022-08-26T17:49:28;25.80;57.90
15298;DHT22;7750;48.796;9.026;2022-08-26T17:54:29;25.70;57.70
15298;DHT22;7750;48.796;9.026;2022-08-26T17:59:30;25.70;57.70
15298;DHT22;7750;48.796;9.026;2022-08-26T18:04:31;25.60;58.10
15298;DHT22;7750;48.796;9.026;2022-08-26T18:09:32;25.60;58.20
15298;DHT22;7750;48.796;9.026;2022-08-26T18:14:33;25.50;58.60
15298;DHT22;7750;48.796;9.026;2022-08-26T18:19:33;25.30;59.10
15298;DHT22;7750;48.796;9.026;2022-08-26T18:24:34;25.20;59.40
15298;DHT22;7750;48.796;9.026;2022-08-26T18:29:35;25.10;59.90
15298;DHT22;7750;48.796;9.026;2022-08-26T18:34:35;25.10;60.10
15298;DHT22;7750;48.796;9.026;2022-08-26T18:39:36;25.00;60.40
15298;DHT22;7750;48.796;9.026;2022-08-26T18:44:37;25.00;61.60
15298;DHT22;7750;48.796;9.026;2022-08-26T18:49:37;25.00;61.20
15298;DHT22;7750;48.796;9.026;2022-08-26T18:54:38;25.00;61.10
15298;DHT22;7750;48.796;9.026;2022-08-26T18:59:39;25.00;61.40
15298;DHT22;7750;48.796;9.026;2022-08-26T19:04:40;24.90;60.90
15298;DHT22;7750;48.796;9.026;2022-08-26T19:09:41;24.80;61.70
15298;DHT22;7750;48.796;9.026;2022-08-26T19:14:41;24.80;61.20
15298;DHT22;7750;48.796;9.026;2022-08-26T19:19:42;24.60;61.70
15298;DHT22;7750;48.796;9.026;2022-08-26T19:24:43;24.60;62.10
15298;DHT22;7750;48.796;9.026;2022-08-26T19:29:43;24.60;62.60
15298;DHT22;7750;48.796;9.026;2022-08-26T19:34:44;24.50;62.80
15298;DHT22;7750;48.796;9.026;2022-08-26T19:39:45;24.50;62.80
15298;DHT22;7750;48.796;9.026;2022-08-26T19:44:46;24.40;63.00
15298;DHT22;7750;48.796;9.026;2022-08-26T19:50:08;24.40;63.30
15298;DHT22;7750;48.796;9.026;2022-08-26T19:55:11;24.30;63.80
15298;DHT22;7750;48.796;9.026;2022-08-26T20:00:19;24.30;64.10
15298;DHT22;7750;48.796;9.026;2022-08-26T20:05:21;24.30;65.00
15298;DHT22;7750;48.796;9.026;2022-08-26T20:10:23;24.20;64.30
15298;DHT22;7750;48.796;9.026;2022-08-26T20:15:23;24.20;64.60
15298;DHT22;7750;48.796;9.026;2022-08-26T20:20:24;24.20;64.70
15298;DHT22;7750;48.796;9.026;2022-08-26T20:25:45;24.20;64.90
15298;DHT22;7750;48.796;9.026;2022-08-26T20:30:46;24.10;65.10
15298;DHT22;7750;48.796;9.026;2022-08-26T20:35:47;24.10;65.10
15298;DHT22;7750;48.796;9.026;2022-08-26T20:40:47;24.10;65.30
15298;DHT22;7750;48.796;9.026;2022-08-26T20:45:48;24.00;65.50
15298;DHT22;7750;48.796;9.026;2022-08-26T20:50:49;24.00;65.80
15298;DHT22;7750;48.796;9.026;2022-08-26T20:55:49;23.90;65.60
15298;DHT22;7750;48.796;9.026;2022-08-26T21:00:53;23.90;66.00
15298;DHT22;7750;48.796;9.026;2022-08-26T21:05:54;23.80;66.30
15298;DHT22;7750;48.796;9.026;2022-08-26T21:10:54;23.80;66.40
15298;DHT22;7750;48.796;9.026;2022-08-26T21:15:56;23.70;66.90
15298;DHT22;7750;48.796;9.026;2022-08-26T21:20:57;23.60;66.90
15298;DHT22;7750;48.796;9.026;2022-08-26T21:26:06;23.60;67.20
15298;DHT22;7750;48.796;9.026;2022-08-26T21:31:09;23.60;67.70
15298;DHT22;7750;48.796;9.026;2022-08-26T21:36:12;23.60;67.90
15298;DHT22;7750;48.796;9.026;2022-08-26T21:41:16;23.60;68.00
15298;DHT22;7750;48.796;9.026;2022-08-26T21:46:20;23.60;68.40
15298;DHT22;7750;48.796;9.026;2022-08-26T21:51:23;23.60;68.60
15298;DHT22;7750;48.796;9.026;2022-08-26T21:56:26;23.60;68.70
15298;DHT22;7750;48.796;9.026;2022-08-26T22:01:29;23.60;69.50
15298;DHT22;7750;48.796;9.026;2022-08-26T22:06:33;24.00;70.50
15298;DHT22;7750;48.796;9.026;2022-08-26T22:11:34;23.80;69.40
15298;DHT22;7750;48.796;9.026;2022-08-26T22:16:35;23.70;69.30
15298;DHT22;7750;48.796;9.026;2022-08-26T22:21:36;23.60;70.00
15298;DHT22;7750;48.796;9.026;2022-08-26T22:26:37;23.60;69.40
15298;DHT22;7750;48.796;9.026;2022-08-26T22:31:38;23.50;69.60
15298;DHT22;7750;48.796;9.026;2022-08-26T22:36:42;23.50;69.80
15298;DHT22;7750;48.796;9.026;2022-08-26T22:41:43;23.50;70.20
15298;DHT22;7750;48.796;9.026;2022-08-26T22:46:45;23.50;70.40
15298;DHT22;7750;48.796;9.026;2022-08-26T22:51:46;23.50;70.40
15298;DHT22;7750;48.796;9.026;2022-08-26T22:56:46;23.40;70.50
15298;DHT22;7750;48.796;9.026;2022-08-26T23:01:47;23.40;70.30
15298;DHT22;7750;48.796;9.026;2022-08-26T23:06:48;23.30;70.60
15298;DHT22;7750;48.796;9.026;2022-08-26T23:11:49;23.30;71.20
15298;DHT22;7750;48.796;9.026;2022-08-26T23:16:50;23.30;71.10
15298;DHT22;7750;48.796;9.026;2022-08-26T23:21:51;23.30;71.30
15298;DHT22;7750;48.796;9.026;2022-08-26T23:26:51;23.30;71.50
15298;DHT22;7750;48.796;9.026;2022-08-26T23:31:52;23.30;71.50
15298;DHT22;7750;48.796;9.026;2022-08-26T23:36:53;23.30;71.70
15298;DHT22;7750;48.796;9.026;2022-08-26T23:41:53;23.20;71.60
15298;DHT22;7750;48.796;9.026;2022-08-26T23:46:55;23.20;71.80
15298;DHT22;7750;48.796;9.026;2022-08-26T23:51:56;23.10;72.20
15298;DHT22;7750;48.796;9.026;2022-08-26T23:57:16;23.10;72.30
